Flight Track Log - Related Links

Times and Time Zones

All times are in EDT time to prevent confusion due to time zone crossing. See the N405MG flight status page for this flight to view local times or setup timezone preferences in your user account.

Time Position Orientation Groundspeed Altitude Reporting Facility
EDT Latitude Longitude Course Direction KTS MPH feet Rate Location/Type
Fri 03:46:30 PM 33.0367 -80.1594 324° Northwest 259 298 5,900  Level Jacksonville Center
Fri 03:47:30 PM 33.1006 -80.2169 323° Northwest 267 307 8,200 2,300 Climbing Jacksonville Center
Fri 03:48:30 PM 33.1606 -80.2897 315° West 279 321 10,500 1,900 Climbing Jacksonville Center
Fri 03:49:30 PM 33.1811 -80.3761 286° West 279 321 12,000 1,600 Climbing Jacksonville Center
Fri 03:50:00 PM 33.1133 -80.6115 294° West  Level FlightAware Approximate
Fri 03:50:30 PM 33.2164 -80.4817 292° West 297 342 13,700  Level Jacksonville Center
Fri 03:51:30 PM 33.2517 -80.5800 293° West 311 358 15,400 1,700 Climbing Jacksonville Center
Fri 03:52:30 PM 33.2869 -80.6811 293° West 324 373 17,100 1,750 Climbing Jacksonville Center
Fri 03:53:30 PM 33.3508 -80.7542 316° Northwest 324 373 18,900 1,650 Climbing Jacksonville Center
Fri 03:54:30 PM 33.4125 -80.8272 315° West 319 367 20,400 1,100 Climbing Jacksonville Center
Fri 03:55:30 PM 33.4764 -80.9106 313° West 326 375 21,100 800 Climbing Jacksonville Center
Fri 03:56:30 PM 33.5053 -81.0219 287° West 338 389 22,000 450 Climbing Jacksonville Center
Fri 03:57:30 PM 33.5258 -81.1461 281° West 352 405 22,000  Level Jacksonville Center
Fri 03:58:30 PM 33.5547 -81.2725 285° West 375 432 22,000  Level Jacksonville Center
Fri 04:00:33 PM 33.6122 -81.5369 285° West 395 455 22,000  Level Atlanta Center
Fri 04:01:33 PM 33.6358 -81.6711 282° West 408 470 22,000  Level Atlanta Center
Fri 04:02:33 PM 33.6486 -81.8078 276° West 413 475 22,000  Level Atlanta Center
Fri 04:03:33 PM 33.6344 -81.9456 263° West 408 470 22,000  Level Atlanta Center
Fri 04:04:33 PM 33.6200 -82.0831 263° West 413 475 22,000  Level Atlanta Center
Fri 04:05:33 PM 33.5992 -82.2181 260° West 418 481 22,000 -300 Level Atlanta Center
Fri 04:06:33 PM 33.5783 -82.3633 260° West 436 502 21,400 -1,050 Descending Atlanta Center
Fri 04:07:33 PM 33.5550 -82.4933 258° West 436 502 19,900 -1,650 Descending Atlanta Center
Fri 04:08:33 PM 33.5400 -82.6306 263° West 434 499 18,100 -1,450 Descending Atlanta Center
Fri 04:09:33 PM 33.5225 -82.7631 261° West 414 476 17,000 -600 Descending Atlanta Center
Fri 04:10:33 PM 33.5050 -82.8853 260° West 386 444 16,900 -50 Descending Atlanta Center
Fri 04:11:33 PM 33.4789 -83.0128 256° West 396 456 16,900 -550 Level Atlanta Center
Fri 04:12:33 PM 33.4550 -83.1475 258° West 403 464 15,800 -1,150 Descending Atlanta Center
Fri 04:13:33 PM 33.4350 -83.2894 260° West 403 464 14,600 -1,300 Descending Atlanta Center
Fri 04:14:33 PM 33.4231 -83.4142 263° West 402 463 13,200 -1,400 Descending Atlanta Center
Fri 04:15:33 PM 33.4092 -83.5361 262° West 388 447 11,800 -1,100 Descending Atlanta Center
Fri 04:16:33 PM 33.3992 -83.6506 264° West 367 422 11,000 -700 Descending Atlanta Center
Fri 04:17:33 PM 33.4347 -83.7350 297° West 316 364 10,400 -1,200 Descending Atlanta Center
Fri 04:18:33 PM 33.5119 -83.7200 North 211 243 8,600 -1,950 Descending Atlanta Center
Fri 04:19:33 PM 33.5914 -83.7097 North 240 276 6,500 -1,300 Descending Atlanta Center
Fri 04:20:33 PM 33.6622 -83.7169 355° North 254 292 6,000 -250 Descending Atlanta Center
Fri 04:21:33 PM 33.7272 -83.7442 341° North 243 280 6,000  Level Atlanta Center
Fri 04:22:33 PM 33.7814 -83.7864 327° Northwest 236 272 6,000  Level Atlanta Center
Fri 04:23:33 PM 33.8294 -83.8211 329° Northwest 236 272 6,000 -100 Level Atlanta Center
Fri 04:24:33 PM 33.8858 -83.8636 328° Northwest 236 272 5,800 -500 Descending Atlanta Center
Fri 04:25:33 PM 33.9339 -83.9061 324° Northwest 225 259 5,000 -381 Descending Atlanta Center
Fri 04:26:39 PM 33.9833 -83.9667 315° West 219 252 5,000 -91 Level Atlanta TRACON
Fri 04:27:45 PM 34.0167 -84.0333 301° West 222 255 4,800 -524 Descending Atlanta TRACON
Fri 04:28:45 PM 34.0333 -84.1167 284° West 221 254 3,900 -450 Descending Atlanta TRACON
Fri 04:29:45 PM 34.0167 -84.1833 253° West 226 260 3,900 -350 Level Atlanta TRACON
Fri 04:30:45 PM 34.0167 -84.2667 270° West 225 259 3,200 -476 Descending Atlanta TRACON
Fri 04:31:51 PM 34.0167 -84.3333 270° West 221 254 2,900 -100 Descending Atlanta TRACON
Fri 04:32:45 PM 34.0167 -84.4167 270° West 218 251 3,000 -53 Climbing Atlanta TRACON
Fri 04:33:45 PM 34.0167 -84.4667 270° West 177 204 2,800 -500 Descending Atlanta TRACON
Fri 04:34:45 PM 34.0167 -84.5167 270° West 141 162 2,000 -737 Descending Atlanta TRACON
Fri 04:35:39 PM 34.0167 -84.5667 270° West 132 152 1,400 -667 Descending Atlanta TRACON
Fri 04:37:00 PM 34.0000 -84.5833 272° West  Level FlightAware Approximate
Fri 04:44:00 PM 34.0132 -84.5971 272° West  Level Estimated

Login

Don't have an account? Register now (free) for customized features, flight alerts, and more!